createdAt,value
2022-12-02T00:00:03.301Z,-1.48
2022-12-02T00:02:39.541Z,-1.47
2022-12-02T00:05:31.306Z,-1.48
2022-12-02T00:08:15.633Z,-1.53
2022-12-02T00:10:50.519Z,-1.62
2022-12-02T00:13:29.389Z,-1.63
2022-12-02T00:16:04.331Z,-1.67
2022-12-02T00:18:38.502Z,-1.67
2022-12-02T00:21:12.359Z,-1.67
2022-12-02T00:23:44.517Z,-1.63
2022-12-02T00:26:18.498Z,-1.67
2022-12-02T00:28:50.816Z,-1.70
2022-12-02T00:31:25.178Z,-1.75
2022-12-02T00:33:59.817Z,-1.92
2022-12-02T00:36:35.440Z,-1.93
2022-12-02T00:39:09.841Z,-1.85
2022-12-02T00:41:46.234Z,-1.83
2022-12-02T00:44:37.414Z,-1.79
2022-12-02T00:47:11.151Z,-1.74
2022-12-02T00:49:45.866Z,-1.71
2022-12-02T00:52:19.905Z,-1.67
2022-12-02T00:54:54.150Z,-1.67
2022-12-02T00:57:28.292Z,-1.74
2022-12-02T01:00:02.290Z,-1.74
2022-12-02T01:02:36.312Z,-1.78
2022-12-02T01:05:11.957Z,-1.80
2022-12-02T01:07:46.323Z,-1.79
2022-12-02T01:10:20.330Z,-1.91
2022-12-02T01:12:54.057Z,-1.85
2022-12-02T01:15:28.265Z,-1.90
2022-12-02T01:18:12.708Z,-1.85
2022-12-02T01:20:59.488Z,-1.91
2022-12-02T01:23:44.267Z,-1.94
2022-12-02T01:26:26.782Z,-1.88
2022-12-02T01:29:16.348Z,-1.83
2022-12-02T01:32:38.743Z,-1.83
2022-12-02T01:35:23.098Z,-1.84
2022-12-02T01:37:57.583Z,-1.98
2022-12-02T01:40:32.699Z,-1.94
2022-12-02T01:43:06.424Z,-2.00
2022-12-02T01:45:38.260Z,-2.02
2022-12-02T01:48:12.756Z,-2.08
2022-12-02T01:50:47.243Z,-2.10
2022-12-02T01:53:23.457Z,-2.06
2022-12-02T01:55:57.864Z,-2.12
2022-12-02T01:58:33.510Z,-2.17
2022-12-02T02:01:21.106Z,-2.20
2022-12-02T02:03:55.633Z,-2.14
2022-12-02T02:06:32.420Z,-2.06
2022-12-02T02:09:08.144Z,-2.04
2022-12-02T02:11:44.508Z,-2.02
2022-12-02T02:14:32.649Z,-2.06
2022-12-02T02:17:06.752Z,-2.04
2022-12-02T02:19:42.151Z,-2.02
2022-12-02T02:22:24.439Z,-2.01
2022-12-02T02:24:59.421Z,-2.05
2022-12-02T02:27:34.521Z,-2.02
2022-12-02T02:30:09.809Z,-2.02
2022-12-02T02:32:46.300Z,-2.01
2022-12-02T02:35:21.533Z,-2.03
2022-12-02T02:37:58.060Z,-2.02
2022-12-02T02:40:33.741Z,-2.00
2022-12-02T02:43:08.921Z,-1.99
2022-12-02T02:45:45.526Z,-2.01
2022-12-02T02:48:21.030Z,-1.96
2022-12-02T02:51:18.934Z,-1.98
2022-12-02T02:54:18.445Z,-2.00
2022-12-02T02:56:58.658Z,-1.99
2022-12-02T02:59:33.568Z,-1.99
2022-12-02T03:02:12.680Z,-2.05
2022-12-02T03:04:48.496Z,-2.11
2022-12-02T03:07:23.340Z,-2.09
2022-12-02T03:09:57.731Z,-2.17
2022-12-02T03:12:32.913Z,-2.21
2022-12-02T03:15:10.357Z,-2.17
2022-12-02T03:17:45.110Z,-2.14
2022-12-02T03:20:19.643Z,-2.10
2022-12-02T03:22:53.750Z,-2.05
2022-12-02T03:25:27.828Z,-2.05
2022-12-02T03:28:02.220Z,-2.05
2022-12-02T03:30:36.761Z,-2.10
2022-12-02T03:33:10.885Z,-2.13
2022-12-02T03:35:45.138Z,-2.11
2022-12-02T03:38:20.432Z,-2.13
2022-12-02T03:40:54.973Z,-2.14
2022-12-02T03:43:29.751Z,-2.17
2022-12-02T03:46:05.064Z,-2.15
2022-12-02T03:48:41.213Z,-2.25
2022-12-02T03:51:17.046Z,-2.23
2022-12-02T03:53:51.418Z,-2.20
2022-12-02T03:56:25.721Z,-2.18
2022-12-02T03:58:59.802Z,-2.22
2022-12-02T04:01:33.650Z,-2.25
2022-12-02T04:04:07.870Z,-2.23
2022-12-02T04:06:42.132Z,-2.25
2022-12-02T04:09:16.461Z,-2.27
2022-12-02T04:11:50.529Z,-2.33
2022-12-02T04:14:25.110Z,-2.38
2022-12-02T04:17:03.796Z,-2.35
2022-12-02T04:19:41.388Z,-2.38
2022-12-02T04:22:18.284Z,-2.37
2022-12-02T04:24:52.151Z,-2.29
2022-12-02T04:27:26.412Z,-2.27
2022-12-02T04:30:02.073Z,-2.36
2022-12-02T04:32:35.865Z,-2.35
2022-12-02T04:35:10.798Z,-2.41
2022-12-02T04:37:45.130Z,-2.45
2022-12-02T04:40:20.801Z,-2.41
2022-12-02T04:42:57.062Z,-2.37
2022-12-02T04:45:31.245Z,-2.36
2022-12-02T04:48:05.989Z,-2.37
2022-12-02T04:50:40.551Z,-2.36
2022-12-02T04:53:16.144Z,-2.37
2022-12-02T04:55:50.258Z,-2.43
2022-12-02T04:58:25.485Z,-2.49
2022-12-02T05:00:59.725Z,-2.52
2022-12-02T05:03:33.274Z,-2.57
2022-12-02T05:06:07.156Z,-2.59
2022-12-02T05:08:41.371Z,-2.63
2022-12-02T05:11:15.327Z,-2.63
2022-12-02T05:14:03.924Z,-2.59
2022-12-02T05:16:49.657Z,-2.61
2022-12-02T05:19:44.714Z,-2.69
2022-12-02T05:22:31.915Z,-2.68
2022-12-02T05:25:17.147Z,-2.64
2022-12-02T05:28:02.491Z,-2.63
2022-12-02T05:30:41.699Z,-2.57
2022-12-02T05:33:16.422Z,-2.54
2022-12-02T05:35:50.641Z,-2.55
2022-12-02T05:38:29.779Z,-2.54
2022-12-02T05:44:35.015Z,-2.52
2022-12-02T05:48:03.169Z,-2.55
2022-12-02T05:50:53.574Z,-2.58
2022-12-02T05:53:34.204Z,-2.60
2022-12-02T05:56:19.245Z,-2.60
2022-12-02T05:59:03.532Z,-2.61
2022-12-02T06:01:49.247Z,-2.66
2022-12-02T06:04:34.652Z,-2.68
2022-12-02T06:07:19.945Z,-2.70
2022-12-02T06:10:03.145Z,-2.80
2022-12-02T06:12:52.052Z,-2.78
2022-12-02T06:15:40.220Z,-2.75
2022-12-02T06:18:33.739Z,-2.75
2022-12-02T06:21:18.552Z,-2.75
2022-12-02T06:24:00.263Z,-2.73
2022-12-02T06:26:47.923Z,-2.68
2022-12-02T06:29:38.506Z,-2.67
2022-12-02T06:32:27.553Z,-2.68
2022-12-02T06:35:02.474Z,-2.73
2022-12-02T06:37:37.805Z,-2.73
2022-12-02T06:40:28.433Z,-2.76
2022-12-02T06:43:05.026Z,-2.74
2022-12-02T06:45:41.788Z,-2.74
2022-12-02T06:48:33.894Z,-2.78
2022-12-02T06:51:19.151Z,-2.78
2022-12-02T06:53:54.578Z,-2.76
2022-12-02T06:56:31.096Z,-2.81
2022-12-02T06:59:06.579Z,-2.83
2022-12-02T07:01:44.201Z,-2.81
2022-12-02T07:04:36.308Z,-2.83
2022-12-02T07:07:19.310Z,-2.80
2022-12-02T07:09:58.128Z,-2.77
2022-12-02T07:12:38.885Z,-2.77
2022-12-02T07:15:28.220Z,-2.83
2022-12-02T07:18:13.366Z,-2.84
2022-12-02T07:20:51.220Z,-2.85
2022-12-02T07:23:26.519Z,-2.87
2022-12-02T07:26:02.947Z,-2.90
2022-12-02T07:28:41.013Z,-2.93
2022-12-02T07:31:21.666Z,-2.89
2022-12-02T07:34:03.966Z,-2.88
2022-12-02T07:36:38.773Z,-2.86
2022-12-02T07:39:13.714Z,-2.88
2022-12-02T07:41:50.623Z,-2.91
2022-12-02T07:44:24.953Z,-2.94
2022-12-02T07:46:59.055Z,-2.90
2022-12-02T07:49:31.112Z,-2.91
2022-12-02T07:52:06.608Z,-2.90
2022-12-02T07:54:41.370Z,-2.85
2022-12-02T07:57:15.297Z,-2.80
2022-12-02T07:59:47.698Z,-2.79
2022-12-02T08:02:21.755Z,-2.81
2022-12-02T08:04:56.488Z,-2.80
2022-12-02T08:07:31.041Z,-2.76
2022-12-02T08:10:06.651Z,-2.73
2022-12-02T08:12:41.211Z,-2.71
2022-12-02T08:15:16.562Z,-2.67
2022-12-02T08:17:50.451Z,-2.68
2022-12-02T08:20:22.054Z,-2.60
2022-12-02T08:22:56.790Z,-2.67
2022-12-02T08:25:31.431Z,-2.66
2022-12-02T08:28:06.067Z,-2.61
2022-12-02T08:30:40.919Z,-2.66
2022-12-02T08:33:41.866Z,-2.63
2022-12-02T08:36:24.833Z,-2.63
2022-12-02T08:39:03.693Z,-2.63
2022-12-02T08:41:38.585Z,-2.59
2022-12-02T08:44:15.741Z,-2.57
2022-12-02T08:46:54.256Z,-2.58
2022-12-02T08:49:30.873Z,-2.59
2022-12-02T08:52:05.736Z,-2.58
2022-12-02T08:54:42.075Z,-2.57
2022-12-02T08:57:17.402Z,-2.55
2022-12-02T08:59:51.907Z,-2.52
2022-12-02T09:02:28.960Z,-2.51
2022-12-02T09:05:04.840Z,-2.51
2022-12-02T09:07:39.468Z,-2.53
2022-12-02T09:10:15.326Z,-2.57
2022-12-02T09:12:52.172Z,-2.55
2022-12-02T09:15:27.541Z,-2.48
2022-12-02T09:18:02.451Z,-2.46
2022-12-02T09:20:37.025Z,-2.52
2022-12-02T09:23:14.195Z,-2.51
2022-12-02T09:25:48.533Z,-2.48
2022-12-02T09:28:23.240Z,-2.45
2022-12-02T09:30:58.690Z,-2.45
2022-12-02T09:33:34.049Z,-2.47
2022-12-02T09:36:09.350Z,-2.46
2022-12-02T09:38:44.375Z,-2.45
2022-12-02T09:41:19.465Z,-2.46
2022-12-02T09:43:54.830Z,-2.50
2022-12-02T09:46:30.647Z,-2.47
2022-12-02T09:49:06.118Z,-2.49
2022-12-02T09:51:41.014Z,-2.45
2022-12-02T09:54:18.853Z,-2.46
2022-12-02T09:56:53.264Z,-2.42
2022-12-02T09:59:28.806Z,-2.47
2022-12-02T10:02:05.795Z,-2.48
2022-12-02T10:04:40.620Z,-2.47
2022-12-02T10:07:15.625Z,-2.46
2022-12-02T10:09:50.812Z,-2.46
2022-12-02T10:12:25.505Z,-2.47
2022-12-02T10:15:01.775Z,-2.49
2022-12-02T10:17:36.496Z,-2.62
2022-12-02T10:20:19.090Z,-2.54
2022-12-02T10:23:16.362Z,-2.49
2022-12-02T10:25:53.549Z,-2.52
2022-12-02T10:28:31.194Z,-2.54
2022-12-02T10:31:12.216Z,-2.55
2022-12-02T10:33:54.298Z,-2.54
2022-12-02T10:36:39.186Z,-2.52
2022-12-02T10:39:37.964Z,-2.53
2022-12-02T10:42:24.771Z,-2.60
2022-12-02T10:45:14.909Z,-2.64
2022-12-02T10:47:49.948Z,-2.62
2022-12-02T10:50:26.152Z,-2.61
2022-12-02T10:53:02.690Z,-2.63
2022-12-02T10:55:36.781Z,-2.61
2022-12-02T10:58:13.351Z,-2.60
2022-12-02T11:00:48.687Z,-2.64
2022-12-02T11:03:23.429Z,-2.61
2022-12-02T11:05:58.352Z,-2.59
2022-12-02T11:08:33.889Z,-2.60
2022-12-02T11:11:17.733Z,-2.64
2022-12-02T11:13:59.789Z,-2.61
2022-12-02T11:17:10.000Z,-2.67
2022-12-02T11:19:50.167Z,-2.62
2022-12-02T11:23:09.632Z,-2.62
2022-12-02T11:26:02.071Z,-2.67
2022-12-02T11:29:10.987Z,-2.65
2022-12-02T11:31:46.158Z,-2.71
2022-12-02T11:37:47.804Z,-2.76
2022-12-02T11:41:00.790Z,-2.80
2022-12-02T11:43:58.222Z,-2.74
2022-12-02T11:46:47.637Z,-2.75
2022-12-02T11:49:44.690Z,-2.73
2022-12-02T11:52:27.365Z,-2.72
2022-12-02T11:55:14.705Z,-2.66
2022-12-02T11:57:53.850Z,-2.73
2022-12-02T12:00:38.256Z,-2.67
2022-12-02T12:03:18.404Z,-2.66
2022-12-02T12:06:11.029Z,-2.71
2022-12-02T12:08:47.321Z,-2.81
2022-12-02T12:11:25.476Z,-2.80
2022-12-02T12:14:25.476Z,-2.78
2022-12-02T12:17:32.858Z,-2.75
2022-12-02T12:20:08.236Z,-2.74
2022-12-02T12:22:43.470Z,-2.76
2022-12-02T12:25:46.242Z,-2.75
2022-12-02T12:28:35.652Z,-2.86
2022-12-02T12:31:12.139Z,-2.85
2022-12-02T12:33:47.165Z,-2.86
2022-12-02T12:36:23.477Z,-2.84
2022-12-02T12:38:58.487Z,-2.83
2022-12-02T12:41:58.633Z,-2.79
2022-12-02T12:44:30.142Z,-2.79
2022-12-02T12:47:07.657Z,-2.78
2022-12-02T12:49:45.054Z,-2.71
2022-12-02T12:52:19.531Z,-2.75
2022-12-02T12:54:53.844Z,-2.76
2022-12-02T12:57:28.870Z,-2.85
2022-12-02T13:00:03.830Z,-2.88
2022-12-02T13:02:38.598Z,-2.85
2022-12-02T13:05:14.101Z,-2.82
2022-12-02T13:07:49.243Z,-2.83
2022-12-02T13:10:25.000Z,-2.82
2022-12-02T13:13:00.078Z,-2.86
2022-12-02T13:15:36.411Z,-2.82
2022-12-02T13:18:28.669Z,-2.90
2022-12-02T13:21:03.446Z,-2.91
2022-12-02T13:23:40.963Z,-2.94
2022-12-02T13:26:16.246Z,-2.89
2022-12-02T13:28:53.586Z,-2.84
2022-12-02T13:31:34.635Z,-2.79
2022-12-02T13:34:10.853Z,-2.83
2022-12-02T13:36:45.044Z,-2.85
2022-12-02T13:39:19.394Z,-2.94
2022-12-02T13:41:53.000Z,-2.93
2022-12-02T13:44:27.644Z,-2.91
2022-12-02T13:47:01.277Z,-2.90
2022-12-02T13:49:35.823Z,-2.96
2022-12-02T13:52:14.083Z,-2.92
2022-12-02T13:54:49.536Z,-2.95
2022-12-02T13:57:35.416Z,-2.94
2022-12-02T14:00:13.121Z,-2.94
2022-12-02T14:02:47.672Z,-2.86
2022-12-02T14:05:25.346Z,-2.85
2022-12-02T14:07:59.572Z,-2.82
2022-12-02T14:10:38.480Z,-2.82
2022-12-02T14:13:18.278Z,-2.84
2022-12-02T14:15:56.081Z,-2.79
2022-12-02T14:18:30.584Z,-2.79
2022-12-02T14:21:05.824Z,-2.76
2022-12-02T14:23:40.196Z,-2.77
2022-12-02T14:26:15.441Z,-2.70
2022-12-02T14:28:56.441Z,-2.67
2022-12-02T14:31:35.770Z,-2.65
2022-12-02T14:34:14.428Z,-2.69
2022-12-02T14:36:48.918Z,-2.70
2022-12-02T14:39:24.396Z,-2.69
2022-12-02T14:42:00.828Z,-2.70
2022-12-02T14:44:36.693Z,-2.68
2022-12-02T14:47:11.167Z,-2.71
2022-12-02T14:49:46.615Z,-2.74
2022-12-02T14:52:21.571Z,-2.67
2022-12-02T14:54:56.214Z,-2.69
2022-12-02T14:57:34.185Z,-2.70
2022-12-02T15:00:13.820Z,-2.67
2022-12-02T15:02:49.827Z,-2.72
2022-12-02T15:05:25.017Z,-2.70
2022-12-02T15:08:02.555Z,-2.66
2022-12-02T15:10:41.397Z,-2.68
2022-12-02T15:13:16.006Z,-2.69
2022-12-02T15:15:56.920Z,-2.70
2022-12-02T15:18:37.239Z,-2.66
2022-12-02T15:21:13.754Z,-2.65
2022-12-02T15:23:48.073Z,-2.65
2022-12-02T15:26:23.298Z,-2.62
2022-12-02T15:28:59.231Z,-2.62
2022-12-02T15:31:33.649Z,-2.66
2022-12-02T15:34:27.992Z,-2.68
2022-12-02T15:37:02.302Z,-2.70
2022-12-02T15:39:36.989Z,-2.67
2022-12-02T15:42:12.026Z,-2.70
2022-12-02T15:44:46.220Z,-2.72
2022-12-02T15:47:20.814Z,-2.71
2022-12-02T15:49:56.209Z,-2.71
2022-12-02T15:52:36.821Z,-2.74
2022-12-02T15:55:15.673Z,-2.71
2022-12-02T15:57:53.443Z,-2.70
2022-12-02T16:00:28.849Z,-2.68
2022-12-02T16:03:04.130Z,-2.70
2022-12-02T16:05:40.640Z,-2.67
2022-12-02T16:08:15.213Z,-2.70
2022-12-02T16:10:51.925Z,-2.72
2022-12-02T16:13:25.984Z,-2.73
2022-12-02T16:16:01.129Z,-2.73
2022-12-02T16:18:38.204Z,-2.73
2022-12-02T16:21:12.619Z,-2.79
2022-12-02T16:23:47.535Z,-2.78
2022-12-02T16:26:21.474Z,-2.76
2022-12-02T16:28:58.060Z,-2.73
2022-12-02T16:31:32.736Z,-2.70
2022-12-02T16:34:06.851Z,-2.74
2022-12-02T16:36:41.217Z,-2.73
2022-12-02T16:39:14.969Z,-2.70
2022-12-02T16:41:49.177Z,-2.68
2022-12-02T16:44:23.628Z,-2.69
2022-12-02T16:47:06.034Z,-2.70
2022-12-02T16:49:39.998Z,-2.69
2022-12-02T16:52:14.623Z,-2.67
2022-12-02T16:54:48.728Z,-2.68
2022-12-02T16:57:23.341Z,-2.67
2022-12-02T16:59:57.533Z,-2.64
2022-12-02T17:02:32.422Z,-2.66
2022-12-02T17:05:07.010Z,-2.65
2022-12-02T17:07:41.543Z,-2.60
2022-12-02T17:10:16.983Z,-2.59
2022-12-02T17:12:52.404Z,-2.62
2022-12-02T17:15:28.081Z,-2.68
2022-12-02T17:18:02.791Z,-2.65
2022-12-02T17:20:36.741Z,-2.61
2022-12-02T17:23:10.840Z,-2.59
2022-12-02T17:25:46.381Z,-2.54
2022-12-02T17:28:22.022Z,-2.57
2022-12-02T17:31:00.509Z,-2.53
2022-12-02T17:33:34.553Z,-2.49
2022-12-02T17:36:09.865Z,-2.49
2022-12-02T17:38:57.328Z,-2.48
2022-12-02T17:41:32.916Z,-2.46
2022-12-02T17:44:10.234Z,-2.50
2022-12-02T17:46:53.192Z,-2.47
2022-12-02T17:49:42.702Z,-2.42
2022-12-02T17:52:34.317Z,-2.45
2022-12-02T17:55:17.888Z,-2.45
2022-12-02T17:57:54.470Z,-2.47
2022-12-02T18:00:31.467Z,-2.44
2022-12-02T18:03:07.574Z,-2.43
2022-12-02T18:05:43.558Z,-2.41
2022-12-02T18:08:18.644Z,-2.39
2022-12-02T18:10:52.890Z,-2.42
2022-12-02T18:13:29.329Z,-2.38
2022-12-02T18:16:07.643Z,-2.36
2022-12-02T18:18:42.016Z,-2.35
2022-12-02T18:21:16.493Z,-2.35
2022-12-02T18:23:50.960Z,-2.34
2022-12-02T18:26:26.112Z,-2.36
2022-12-02T18:29:00.299Z,-2.34
2022-12-02T18:31:34.459Z,-2.37
2022-12-02T18:34:08.793Z,-2.41
2022-12-02T18:36:43.357Z,-2.36
2022-12-02T18:39:17.979Z,-2.32
2022-12-02T18:41:57.981Z,-2.33
2022-12-02T18:44:35.621Z,-2.32
2022-12-02T18:47:13.377Z,-2.31
2022-12-02T18:49:51.746Z,-2.31
2022-12-02T18:52:29.476Z,-2.31
2022-12-02T18:55:09.552Z,-2.28
2022-12-02T18:57:49.875Z,-2.30
2022-12-02T19:00:29.493Z,-2.29
2022-12-02T19:03:10.471Z,-2.28
2022-12-02T19:05:49.550Z,-2.27
2022-12-02T19:08:25.956Z,-2.30
2022-12-02T19:11:02.707Z,-2.31
2022-12-02T19:13:41.827Z,-2.31
2022-12-02T19:16:20.110Z,-2.32
2022-12-02T19:18:59.299Z,-2.35
2022-12-02T19:21:37.552Z,-2.34
2022-12-02T19:24:16.449Z,-2.34
2022-12-02T19:26:54.517Z,-2.33
2022-12-02T19:29:42.632Z,-2.32
2022-12-02T19:32:25.434Z,-2.32
2022-12-02T19:35:11.838Z,-2.30
2022-12-02T19:37:51.696Z,-2.32
2022-12-02T19:40:32.924Z,-2.32
2022-12-02T19:43:10.343Z,-2.32
2022-12-02T19:45:49.430Z,-2.33
2022-12-02T19:48:28.215Z,-2.34
2022-12-02T19:51:02.736Z,-2.34
2022-12-02T19:53:42.483Z,-2.35
2022-12-02T19:56:17.878Z,-2.31
2022-12-02T19:59:07.187Z,-2.29
2022-12-02T20:02:01.106Z,-2.30
2022-12-02T20:04:47.200Z,-2.30
2022-12-02T20:07:35.003Z,-2.31
2022-12-02T20:10:14.736Z,-2.28
2022-12-02T20:12:52.478Z,-2.28
2022-12-02T20:15:33.611Z,-2.28
2022-12-02T20:18:10.067Z,-2.27
2022-12-02T20:20:46.154Z,-2.26
2022-12-02T20:23:20.448Z,-2.27
2022-12-02T20:26:01.863Z,-2.25
2022-12-02T20:28:43.798Z,-2.22
2022-12-02T20:31:28.307Z,-2.23
2022-12-02T20:34:02.789Z,-2.23
2022-12-02T20:36:37.535Z,-2.24
2022-12-02T20:39:11.578Z,-2.24
2022-12-02T20:41:49.090Z,-2.22
2022-12-02T20:44:28.979Z,-2.23
2022-12-02T20:47:05.710Z,-2.24
2022-12-02T20:49:39.801Z,-2.22
2022-12-02T20:52:14.268Z,-2.20
2022-12-02T20:54:49.155Z,-2.19
2022-12-02T20:57:25.520Z,-2.17
2022-12-02T21:00:00.618Z,-2.17
2022-12-02T21:02:34.927Z,-2.13
2022-12-02T21:05:10.620Z,-2.11
2022-12-02T21:07:45.361Z,-2.12
2022-12-02T21:10:21.800Z,-2.10
2022-12-02T21:13:00.331Z,-2.11
2022-12-02T21:15:40.243Z,-2.10
2022-12-02T21:18:15.977Z,-2.08
2022-12-02T21:20:50.854Z,-2.06
2022-12-02T21:23:29.154Z,-2.04
2022-12-02T21:26:05.419Z,-2.07
2022-12-02T21:28:39.857Z,-2.08
2022-12-02T21:31:17.140Z,-2.07
2022-12-02T21:33:52.110Z,-2.05
2022-12-02T21:36:28.470Z,-2.07
2022-12-02T21:39:02.956Z,-2.03
2022-12-02T21:41:37.228Z,-2.04
2022-12-02T21:44:11.663Z,-2.04
2022-12-02T21:46:45.970Z,-2.02
2022-12-02T21:49:20.351Z,-2.03
2022-12-02T21:51:55.836Z,-2.02
2022-12-02T21:54:29.954Z,-2.01
2022-12-02T21:57:04.870Z,-2.01
2022-12-02T21:59:39.051Z,-2.00
2022-12-02T22:02:21.669Z,-2.03
2022-12-02T22:04:56.230Z,-2.02
2022-12-02T22:07:43.039Z,-2.00
2022-12-02T22:10:21.634Z,-2.01
2022-12-02T22:12:56.749Z,-1.97
2022-12-02T22:15:32.717Z,-1.97
2022-12-02T22:18:08.528Z,-1.97
2022-12-02T22:20:52.383Z,-1.95
2022-12-02T22:23:25.517Z,-1.96
2022-12-02T22:25:59.463Z,-2.00
2022-12-02T22:28:33.870Z,-2.00
2022-12-02T22:31:08.312Z,-2.00
2022-12-02T22:33:42.697Z,-1.99
2022-12-02T22:36:17.985Z,-2.02
2022-12-02T22:38:53.007Z,-2.00
2022-12-02T22:41:27.234Z,-1.99
2022-12-02T22:44:01.385Z,-1.95
2022-12-02T22:46:36.255Z,-1.95
2022-12-02T22:49:10.446Z,-1.95
2022-12-02T22:51:44.216Z,-1.91
2022-12-02T22:54:21.166Z,-1.91
2022-12-02T22:56:55.605Z,-1.90
2022-12-02T22:59:31.330Z,-1.95
2022-12-02T23:02:05.236Z,-1.95
2022-12-02T23:04:40.395Z,-1.94
2022-12-02T23:07:14.799Z,-1.96
2022-12-02T23:09:49.990Z,-1.97
2022-12-02T23:12:26.499Z,-1.94
2022-12-02T23:15:34.598Z,-1.93
2022-12-02T23:17:57.487Z,-1.94
2022-12-02T23:20:32.260Z,-1.95
2022-12-02T23:23:06.075Z,-1.90
2022-12-02T23:25:40.207Z,-1.89
2022-12-02T23:28:14.162Z,-1.89
2022-12-02T23:30:48.579Z,-1.88
2022-12-02T23:33:24.107Z,-1.86
2022-12-02T23:35:58.276Z,-1.90
2022-12-02T23:38:32.292Z,-1.90
2022-12-02T23:41:06.464Z,-1.88
2022-12-02T23:43:40.279Z,-1.90
2022-12-02T23:46:14.301Z,-1.91
2022-12-02T23:48:48.436Z,-1.91
2022-12-02T23:51:27.058Z,-1.87
2022-12-02T23:54:01.684Z,-1.87
2022-12-02T23:56:35.726Z,-1.87
2022-12-02T23:59:09.964Z,-1.87
